createdAt,value
2019-03-02T00:01:48.687Z,38.20
2019-03-02T00:04:16.547Z,34.60
2019-03-02T00:06:47.257Z,31.77
2019-03-02T00:09:14.575Z,37.73
2019-03-02T00:11:42.045Z,33.53
2019-03-02T00:14:09.376Z,35.23
2019-03-02T00:16:39.777Z,36.07
2019-03-02T00:19:07.869Z,32.90
2019-03-02T00:21:35.279Z,33.70
2019-03-02T00:24:05.536Z,31.33
2019-03-02T00:26:32.791Z,38.67
2019-03-02T00:29:00.034Z,36.60
2019-03-02T00:31:33.316Z,29.47
2019-03-02T00:33:59.961Z,36.33
2019-03-02T00:36:27.488Z,35.50
2019-03-02T00:38:54.751Z,38.10
2019-03-02T00:41:22.031Z,33.77
2019-03-02T00:43:49.588Z,34.93
2019-03-02T00:46:16.858Z,32.57
2019-03-02T00:48:46.982Z,34.27
2019-03-02T00:51:13.304Z,34.40
2019-03-02T00:53:40.549Z,36.37
2019-03-02T00:56:09.095Z,36.73
2019-03-02T00:58:36.602Z,31.07
2019-03-02T01:01:04.052Z,37.13
2019-03-02T01:03:31.340Z,40.20
2019-03-02T01:05:58.704Z,36.67
2019-03-02T01:08:25.964Z,36.63
2019-03-02T01:11:12.829Z,36.00
2019-03-02T01:13:41.024Z,35.73
2019-03-02T01:16:08.589Z,35.03
2019-03-02T01:18:38.725Z,34.90
2019-03-02T01:21:05.152Z,34.43
2019-03-02T01:23:32.470Z,33.20
2019-03-02T01:25:59.727Z,34.03
2019-03-02T01:28:26.972Z,33.40
2019-03-02T01:30:54.364Z,31.47
2019-03-02T01:33:25.140Z,31.50
2019-03-02T01:35:53.965Z,32.73
2019-03-02T01:38:19.940Z,32.03
2019-03-02T01:40:47.282Z,32.97
2019-03-02T01:43:14.530Z,34.33
2019-03-02T01:45:41.760Z,32.97
2019-03-02T01:48:09.067Z,34.13
2019-03-02T01:50:36.313Z,31.67
2019-03-02T01:53:06.517Z,32.03
2019-03-02T01:55:32.843Z,38.00
2019-03-02T01:58:00.093Z,33.67
2019-03-02T02:00:29.106Z,30.77
2019-03-02T02:02:57.061Z,33.43
2019-03-02T02:05:24.359Z,35.93
2019-03-02T02:07:54.129Z,34.87
2019-03-02T02:10:20.828Z,29.07
2019-03-02T02:12:48.308Z,33.30
2019-03-02T02:15:17.514Z,32.97
2019-03-02T02:17:45.004Z,30.43
2019-03-02T02:20:14.516Z,29.70
2019-03-02T02:22:41.997Z,30.23
2019-03-02T02:25:10.438Z,27.20
2019-03-02T02:27:37.872Z,26.37
2019-03-02T02:30:11.424Z,25.23
2019-03-02T02:32:38.754Z,31.97
2019-03-02T02:35:06.034Z,28.47
2019-03-02T02:37:36.967Z,26.53
2019-03-02T02:40:02.435Z,27.00
2019-03-02T02:42:29.734Z,22.10
2019-03-02T02:44:56.990Z,21.53
2019-03-02T02:47:24.248Z,23.60
2019-03-02T02:49:51.534Z,21.37
2019-03-02T02:52:27.583Z,23.20
2019-03-02T02:54:47.978Z,21.23
2019-03-02T02:57:15.255Z,23.40
2019-03-02T02:59:42.507Z,23.70
2019-03-02T03:02:10.937Z,23.87
2019-03-02T03:04:39.064Z,19.67
2019-03-02T03:07:07.162Z,18.33
2019-03-02T03:09:49.476Z,17.90
2019-03-02T03:12:22.062Z,19.63
2019-03-02T03:14:46.945Z,19.60
2019-03-02T03:17:14.192Z,20.03
2019-03-02T03:19:41.420Z,18.77
2019-03-02T03:22:09.194Z,17.93
2019-03-02T03:24:40.380Z,18.80
2019-03-02T03:27:08.962Z,21.23
2019-03-02T03:29:34.924Z,16.13
2019-03-02T03:32:08.962Z,17.83
2019-03-02T03:34:32.519Z,18.40
2019-03-02T03:37:00.105Z,19.13
2019-03-02T03:39:27.453Z,21.87
2019-03-02T03:41:54.732Z,17.17
2019-03-02T03:44:26.178Z,18.77
2019-03-02T03:46:51.275Z,18.90
2019-03-02T03:49:18.671Z,21.13
2019-03-02T03:51:45.925Z,22.83
2019-03-02T03:54:13.175Z,21.27
2019-03-02T03:56:42.451Z,18.53
2019-03-02T03:59:14.052Z,21.70
2019-03-02T04:01:52.043Z,18.80
2019-03-02T04:04:16.786Z,21.47
2019-03-02T04:06:44.035Z,24.63
2019-03-02T04:09:11.291Z,24.23
2019-03-02T04:11:42.064Z,23.30
2019-03-02T04:14:07.679Z,20.07
2019-03-02T04:16:35.028Z,20.47
2019-03-02T04:19:02.292Z,21.77
2019-03-02T04:21:32.556Z,24.63
2019-03-02T04:24:02.124Z,22.37
2019-03-02T04:26:31.441Z,21.83
2019-03-02T04:28:58.132Z,25.73
2019-03-02T04:31:25.373Z,23.03
2019-03-02T04:33:52.643Z,27.30
2019-03-02T04:36:19.875Z,23.00
2019-03-02T04:38:47.211Z,27.97
2019-03-02T04:41:14.579Z,30.07
2019-03-02T04:43:41.832Z,25.43
2019-03-02T04:46:11.663Z,31.07
2019-03-02T04:48:39.356Z,25.57
2019-03-02T04:51:07.280Z,27.17
2019-03-02T04:53:34.550Z,24.07
2019-03-02T04:56:01.876Z,32.63
2019-03-02T04:58:29.111Z,25.83
2019-03-02T05:00:56.373Z,27.60
2019-03-02T05:03:23.602Z,24.40
2019-03-02T05:05:50.856Z,25.67
2019-03-02T05:08:18.191Z,29.20
2019-03-02T05:10:45.420Z,30.40
2019-03-02T05:13:12.684Z,29.70
2019-03-02T05:15:39.924Z,27.63
2019-03-02T05:18:07.154Z,29.60
2019-03-02T05:20:37.604Z,27.10
2019-03-02T05:23:03.620Z,28.50
2019-03-02T05:25:30.890Z,28.17
2019-03-02T05:27:58.221Z,26.33
2019-03-02T05:30:26.749Z,27.23
2019-03-02T05:32:54.605Z,34.77
2019-03-02T05:35:21.853Z,28.83
2019-03-02T05:37:49.130Z,31.90
2019-03-02T05:40:16.358Z,29.80
2019-03-02T05:42:48.563Z,28.27
2019-03-02T05:45:12.834Z,27.30
2019-03-02T05:47:40.063Z,29.17
2019-03-02T05:50:07.355Z,34.83
2019-03-02T05:52:34.704Z,30.33
2019-03-02T05:55:01.957Z,27.93
2019-03-02T05:57:29.235Z,28.70
2019-03-02T05:59:58.681Z,32.07
2019-03-02T06:02:25.756Z,37.80
2019-03-02T06:04:53.728Z,33.20
2019-03-02T06:07:22.163Z,32.20
2019-03-02T06:09:50.116Z,34.27
2019-03-02T06:12:18.421Z,30.57
2019-03-02T06:14:45.687Z,31.03
2019-03-02T06:17:12.940Z,32.17
2019-03-02T06:19:40.272Z,31.67
2019-03-02T06:22:07.526Z,35.73
2019-03-02T06:24:37.652Z,34.27
2019-03-02T06:27:03.955Z,37.73
2019-03-02T06:29:32.749Z,39.10
2019-03-02T06:32:00.326Z,40.60
2019-03-02T06:34:27.572Z,45.63
2019-03-02T06:36:54.842Z,38.80
2019-03-02T06:39:22.072Z,42.77
2019-03-02T06:41:49.323Z,41.53
2019-03-02T06:44:16.580Z,48.10
2019-03-02T06:46:43.827Z,45.93
2019-03-02T06:49:11.073Z,51.73
2019-03-02T06:51:38.330Z,55.40
2019-03-02T06:54:08.995Z,53.27
2019-03-02T06:56:35.950Z,57.00
2019-03-02T06:59:04.236Z,53.80
2019-03-02T07:01:32.168Z,63.03
2019-03-02T07:03:59.428Z,56.57
2019-03-02T07:06:26.676Z,57.80
2019-03-02T07:08:53.928Z,60.73
2019-03-02T07:11:21.191Z,66.20
2019-03-02T07:13:48.575Z,67.20
2019-03-02T07:16:16.598Z,70.50
2019-03-02T07:18:50.552Z,82.50
2019-03-02T07:21:17.789Z,77.40
2019-03-02T07:23:45.024Z,89.43
2019-03-02T07:26:15.714Z,92.73
2019-03-02T07:28:42.220Z,87.67
2019-03-02T07:31:10.385Z,74.93
2019-03-02T07:33:37.687Z,78.47
2019-03-02T07:36:04.918Z,82.43
2019-03-02T07:38:32.186Z,74.00
2019-03-02T07:40:59.480Z,76.70
2019-03-02T07:43:26.733Z,72.30
2019-03-02T07:45:53.994Z,84.20
2019-03-02T07:48:21.319Z,136.77
2019-03-02T07:50:48.598Z,109.90
2019-03-02T07:53:15.833Z,118.50
2019-03-02T07:55:43.067Z,99.33
2019-03-02T07:58:10.324Z,112.43
2019-03-02T08:00:37.900Z,86.43
2019-03-02T08:03:06.956Z,92.80
2019-03-02T08:05:34.192Z,74.87
2019-03-02T08:08:01.435Z,75.10
2019-03-02T08:10:28.713Z,69.77
2019-03-02T08:12:57.764Z,84.07
2019-03-02T08:15:25.851Z,80.20
2019-03-02T08:17:53.310Z,72.70
2019-03-02T08:20:23.905Z,69.53
2019-03-02T08:22:49.737Z,70.47
2019-03-02T08:25:17.172Z,70.40
2019-03-02T08:27:44.456Z,66.07
2019-03-02T08:30:14.105Z,62.47
2019-03-02T08:32:41.351Z,74.17
2019-03-02T08:35:09.343Z,70.13
2019-03-02T08:37:36.629Z,76.80
2019-03-02T08:40:04.638Z,86.60
2019-03-02T08:42:31.883Z,77.97
2019-03-02T08:44:59.135Z,72.40
2019-03-02T08:47:26.445Z,73.40
2019-03-02T08:49:53.894Z,68.43
2019-03-02T08:52:21.244Z,64.37
2019-03-02T08:54:48.591Z,73.90
2019-03-02T08:57:15.851Z,62.93
2019-03-02T08:59:43.136Z,67.70
2019-03-02T09:02:10.389Z,64.33
2019-03-02T09:04:37.634Z,73.50
2019-03-02T09:07:07.809Z,67.97
2019-03-02T09:09:34.337Z,66.90
2019-03-02T09:12:01.660Z,58.00
2019-03-02T09:14:28.940Z,56.50
2019-03-02T09:16:56.191Z,63.03
2019-03-02T09:19:24.259Z,71.97
2019-03-02T09:21:51.672Z,68.50
2019-03-02T09:24:19.730Z,71.40
2019-03-02T09:26:47.116Z,70.20
2019-03-02T09:29:14.371Z,76.53
2019-03-02T09:31:42.527Z,55.47
2019-03-02T09:34:09.771Z,66.80
2019-03-02T09:36:37.112Z,66.63
2019-03-02T09:39:06.502Z,79.53
2019-03-02T09:41:33.768Z,65.27
2019-03-02T09:44:01.938Z,64.10
2019-03-02T09:46:29.355Z,71.00
2019-03-02T09:48:56.904Z,66.07
2019-03-02T09:51:25.801Z,60.43
2019-03-02T09:53:53.069Z,72.73
2019-03-02T09:56:20.325Z,70.30
2019-03-02T09:58:47.621Z,64.90
2019-03-02T10:01:14.997Z,70.77
2019-03-02T10:03:42.312Z,71.03
2019-03-02T10:06:09.605Z,70.90
2019-03-02T10:08:36.890Z,71.37
2019-03-02T10:11:06.157Z,68.63
2019-03-02T10:13:33.303Z,60.63
2019-03-02T10:16:04.061Z,72.40
2019-03-02T10:18:29.834Z,69.97
2019-03-02T10:20:57.155Z,65.87
2019-03-02T10:23:24.413Z,67.00
2019-03-02T10:25:51.715Z,60.77
2019-03-02T10:28:18.966Z,71.20
2019-03-02T10:30:46.196Z,62.17
2019-03-02T10:33:13.478Z,71.30
2019-03-02T10:35:40.717Z,68.90
2019-03-02T10:38:07.962Z,71.53
2019-03-02T10:40:35.334Z,68.60
2019-03-02T10:43:02.667Z,67.23
2019-03-02T10:45:33.606Z,65.00
2019-03-02T10:48:00.699Z,75.10
2019-03-02T10:50:27.964Z,65.23
2019-03-02T10:52:55.349Z,67.27
2019-03-02T10:55:22.598Z,59.83
2019-03-02T10:57:50.155Z,66.57
2019-03-02T11:00:29.262Z,67.87
2019-03-02T11:02:57.200Z,64.10
2019-03-02T11:05:43.115Z,63.53
2019-03-02T11:08:25.356Z,58.67
2019-03-02T11:11:11.856Z,57.30
2019-03-02T11:14:10.881Z,63.40
2019-03-02T11:16:56.485Z,66.07
2019-03-02T11:19:55.046Z,63.13
2019-03-02T11:22:54.085Z,61.93
2019-03-02T11:25:49.816Z,62.77
2019-03-02T11:28:23.411Z,59.63
2019-03-02T11:31:07.597Z,61.50
2019-03-02T11:34:03.466Z,60.70
2019-03-02T11:37:02.185Z,54.00
2019-03-02T11:39:50.013Z,56.40
2019-03-02T11:42:24.181Z,57.40
2019-03-02T11:45:13.084Z,55.90
2019-03-02T11:47:52.208Z,57.43
2019-03-02T11:50:38.115Z,54.23
2019-03-02T11:53:24.032Z,54.33
2019-03-02T11:56:09.493Z,54.07
2019-03-02T11:58:53.004Z,47.73
2019-03-02T12:01:42.579Z,57.07
2019-03-02T12:04:32.104Z,63.50
2019-03-02T12:07:07.714Z,66.73
2019-03-02T12:09:53.175Z,70.53
2019-03-02T12:12:39.966Z,61.13
2019-03-02T12:15:33.381Z,58.47
2019-03-02T12:18:20.868Z,62.57
2019-03-02T12:21:07.752Z,63.60
2019-03-02T12:23:45.399Z,50.30
2019-03-02T12:26:38.040Z,48.10
2019-03-02T12:29:30.971Z,40.13
2019-03-02T12:32:08.857Z,37.77
2019-03-02T12:34:50.979Z,37.07
2019-03-02T12:37:28.384Z,38.20
2019-03-02T12:40:18.493Z,45.70
2019-03-02T12:43:11.149Z,49.47
2019-03-02T12:46:16.752Z,50.37
2019-03-02T12:48:57.520Z,46.70
2019-03-02T12:51:40.667Z,63.50
2019-03-02T12:54:30.673Z,55.90
2019-03-02T12:57:16.070Z,64.40
2019-03-02T13:00:01.672Z,59.97
2019-03-02T13:03:06.894Z,41.47
2019-03-02T13:05:57.472Z,36.63
2019-03-02T13:08:34.813Z,51.47
2019-03-02T13:11:30.683Z,46.33
2019-03-02T13:14:20.272Z,55.83
2019-03-02T13:17:16.193Z,47.87
2019-03-02T13:20:05.995Z,47.47
2019-03-02T13:22:55.563Z,43.03
2019-03-02T13:26:00.280Z,47.57
2019-03-02T13:28:55.920Z,48.93
2019-03-02T13:31:43.820Z,42.90
2019-03-02T13:34:31.139Z,48.37
2019-03-02T13:37:20.267Z,44.20
2019-03-02T13:40:05.276Z,40.30
2019-03-02T13:42:52.174Z,27.73
2019-03-02T13:45:35.638Z,26.80
2019-03-02T13:48:31.256Z,19.83
2019-03-02T13:51:17.949Z,25.07
2019-03-02T13:54:03.410Z,26.40
2019-03-02T13:56:50.190Z,30.50
2019-03-02T13:59:46.006Z,30.33
2019-03-02T14:02:39.211Z,28.70
2019-03-02T14:05:25.304Z,29.57
2019-03-02T14:08:08.379Z,29.70
2019-03-02T14:10:52.500Z,29.17
2019-03-02T14:13:42.050Z,30.70
2019-03-02T14:16:32.112Z,29.00
2019-03-02T14:19:25.523Z,28.43
2019-03-02T14:22:00.046Z,29.20
2019-03-02T14:24:33.448Z,31.23
2019-03-02T14:27:35.184Z,30.30
2019-03-02T14:30:12.376Z,33.97
2019-03-02T14:32:59.339Z,26.07
2019-03-02T14:35:32.489Z,31.43
2019-03-02T14:38:31.182Z,33.03
2019-03-02T14:41:08.770Z,25.30
2019-03-02T14:43:53.700Z,25.60
2019-03-02T14:46:44.873Z,23.47
2019-03-02T14:49:20.528Z,28.10
2019-03-02T14:51:58.748Z,28.23
2019-03-02T14:54:48.028Z,21.50
2019-03-02T14:57:24.663Z,23.47
2019-03-02T15:00:14.660Z,25.20
2019-03-02T15:03:00.225Z,19.43
2019-03-02T15:06:08.600Z,21.73
2019-03-02T15:09:12.371Z,19.70
2019-03-02T15:12:00.645Z,18.27
2019-03-02T15:14:47.423Z,20.40
2019-03-02T15:17:49.160Z,24.93
2019-03-02T15:20:36.233Z,22.97
2019-03-02T15:23:38.972Z,17.13
2019-03-02T15:26:34.361Z,24.70
2019-03-02T15:29:21.321Z,17.53
2019-03-02T15:32:11.257Z,21.97
2019-03-02T15:34:57.937Z,19.40
2019-03-02T15:37:35.221Z,12.63
2019-03-02T15:40:24.876Z,13.10
2019-03-02T15:43:19.292Z,17.87
2019-03-02T15:46:18.609Z,13.70
2019-03-02T15:49:08.385Z,16.60
2019-03-02T15:51:49.521Z,16.07
2019-03-02T15:54:36.535Z,19.13
2019-03-02T15:57:11.752Z,18.17
2019-03-02T15:59:57.252Z,14.83
2019-03-02T16:02:42.123Z,19.63
2019-03-02T16:05:21.779Z,18.80
2019-03-02T16:08:14.379Z,12.13
2019-03-02T16:11:09.077Z,18.33
2019-03-02T16:13:50.472Z,15.40
2019-03-02T16:16:43.595Z,16.73
2019-03-02T16:19:39.724Z,10.20
2019-03-02T16:22:30.043Z,20.63
2019-03-02T16:28:13.759Z,19.33
2019-03-02T16:31:28.513Z,18.97
2019-03-02T16:34:30.995Z,15.77
2019-03-02T16:37:18.426Z,16.83
2019-03-02T16:39:59.603Z,14.77
2019-03-02T16:42:55.396Z,19.10
2019-03-02T16:45:37.435Z,18.73
2019-03-02T16:48:24.992Z,16.80
2019-03-02T16:51:11.672Z,12.87
2019-03-02T16:53:48.260Z,16.83
2019-03-02T16:56:25.944Z,13.53
2019-03-02T16:59:18.837Z,20.17
2019-03-02T17:02:23.674Z,14.03
2019-03-02T17:05:16.538Z,14.03
2019-03-02T17:08:00.208Z,11.80
2019-03-02T17:10:50.003Z,13.37
2019-03-02T17:13:31.976Z,8.53
2019-03-02T17:16:09.501Z,15.63
2019-03-02T17:19:08.208Z,14.37
2019-03-02T17:21:43.468Z,14.10
2019-03-02T17:24:19.955Z,10.27
2019-03-02T17:27:03.158Z,16.53
2019-03-02T17:29:56.179Z,12.87
2019-03-02T17:32:51.030Z,14.17
2019-03-02T17:35:38.225Z,12.03
2019-03-02T17:38:25.155Z,13.37
2019-03-02T17:41:08.340Z,14.00
2019-03-02T17:44:04.476Z,11.63
2019-03-02T17:46:47.021Z,6.63
2019-03-02T17:49:33.887Z,11.60
2019-03-02T17:52:14.349Z,9.33
2019-03-02T17:55:07.130Z,8.93
2019-03-02T17:58:03.656Z,10.40
2019-03-02T18:01:08.568Z,7.90
2019-03-02T18:03:56.016Z,9.87
2019-03-02T18:06:41.813Z,10.30
2019-03-02T18:09:20.870Z,9.87
2019-03-02T18:12:07.953Z,8.87
2019-03-02T18:14:57.733Z,9.63
2019-03-02T18:18:00.057Z,6.40
2019-03-02T18:20:28.593Z,15.30
2019-03-02T18:22:56.011Z,9.57
2019-03-02T18:25:23.398Z,10.23
2019-03-02T18:27:50.852Z,7.03
2019-03-02T18:30:18.199Z,6.23
2019-03-02T18:32:46.061Z,8.60
2019-03-02T18:35:13.392Z,9.17
2019-03-02T18:37:42.601Z,13.60
2019-03-02T18:40:10.713Z,9.47
2019-03-02T18:42:38.081Z,10.87
2019-03-02T18:45:07.109Z,9.43
2019-03-02T18:47:34.371Z,5.23
2019-03-02T18:50:13.696Z,8.27
2019-03-02T18:52:53.709Z,4.60
2019-03-02T18:55:22.370Z,9.47
2019-03-02T18:57:50.956Z,4.60
2019-03-02T19:00:23.110Z,8.43
2019-03-02T19:02:50.409Z,5.27
2019-03-02T19:05:17.887Z,8.17
2019-03-02T19:07:45.823Z,6.93
2019-03-02T19:10:13.631Z,7.83
2019-03-02T19:12:40.883Z,11.17
2019-03-02T19:15:09.492Z,8.20
2019-03-02T19:17:46.468Z,4.23
2019-03-02T19:20:14.390Z,6.53
2019-03-02T19:22:41.671Z,3.27
2019-03-02T19:25:09.522Z,5.57
2019-03-02T19:27:36.872Z,2.97
2019-03-02T19:30:04.531Z,2.47
2019-03-02T19:32:31.907Z,3.37
2019-03-02T19:34:59.476Z,4.93
2019-03-02T19:37:26.908Z,3.13
2019-03-02T19:39:54.219Z,7.27
2019-03-02T19:42:21.546Z,3.90
2019-03-02T19:44:48.858Z,4.53
2019-03-02T19:47:16.145Z,3.93
2019-03-02T19:49:43.397Z,3.53
2019-03-02T19:52:10.667Z,3.30
2019-03-02T19:54:37.949Z,1.90
2019-03-02T19:57:05.237Z,3.40
2019-03-02T19:59:32.515Z,3.77
2019-03-02T20:01:59.864Z,3.10
2019-03-02T20:04:27.178Z,2.10
2019-03-02T20:06:54.543Z,2.10
2019-03-02T20:09:21.911Z,2.57
2019-03-02T20:11:49.165Z,3.17
2019-03-02T20:14:16.536Z,3.70
2019-03-02T20:16:43.899Z,4.03
2019-03-02T20:19:11.180Z,5.33
2019-03-02T20:21:38.432Z,5.00
2019-03-02T20:24:06.479Z,6.43
2019-03-02T20:26:33.961Z,5.43
2019-03-02T20:29:01.227Z,6.77
2019-03-02T20:31:28.495Z,4.60
2019-03-02T20:33:55.747Z,4.20
2019-03-02T20:36:22.986Z,4.17
2019-03-02T20:38:50.252Z,4.17
2019-03-02T20:41:17.515Z,3.93
2019-03-02T20:43:44.781Z,3.40
2019-03-02T20:46:12.032Z,3.40
2019-03-02T20:48:39.270Z,3.77
2019-03-02T20:51:06.523Z,3.00
2019-03-02T20:53:33.872Z,3.50
2019-03-02T20:56:01.126Z,3.63
2019-03-02T20:58:28.383Z,3.60
2019-03-02T21:00:55.789Z,3.50
2019-03-02T21:03:23.140Z,3.70
2019-03-02T21:05:50.578Z,3.87
2019-03-02T21:08:18.165Z,3.77
2019-03-02T21:10:45.591Z,3.60
2019-03-02T21:13:13.423Z,4.47
2019-03-02T21:15:41.038Z,3.53
2019-03-02T21:18:08.285Z,3.87
2019-03-02T21:20:36.647Z,3.73
2019-03-02T21:23:04.807Z,3.97
2019-03-02T21:25:32.300Z,4.53
2019-03-02T21:28:00.380Z,5.07
2019-03-02T21:30:27.747Z,4.67
2019-03-02T21:32:55.365Z,5.03
2019-03-02T21:35:22.940Z,4.03
2019-03-02T21:37:50.597Z,5.23
2019-03-02T21:40:19.556Z,4.43
2019-03-02T21:42:46.888Z,5.27
2019-03-02T21:45:15.472Z,5.10
2019-03-02T21:47:43.676Z,3.90
2019-03-02T21:50:13.422Z,3.87
2019-03-02T21:52:40.910Z,3.43
2019-03-02T21:55:08.717Z,3.50
2019-03-02T21:57:36.245Z,3.90
2019-03-02T22:00:04.910Z,5.13
2019-03-02T22:02:32.374Z,6.40
2019-03-02T22:04:59.968Z,4.27
2019-03-02T22:07:27.517Z,5.27
2019-03-02T22:09:55.010Z,4.23
2019-03-02T22:12:22.621Z,4.57
2019-03-02T22:14:50.304Z,5.13
2019-03-02T22:17:17.771Z,5.70
2019-03-02T22:19:45.449Z,5.50
2019-03-02T22:22:13.009Z,6.70
2019-03-02T22:24:40.578Z,7.03
2019-03-02T22:27:08.261Z,7.97
2019-03-02T22:29:35.832Z,8.97
2019-03-02T22:32:03.449Z,8.47
2019-03-02T22:34:31.124Z,9.07
2019-03-02T22:36:58.847Z,10.60
2019-03-02T22:39:26.831Z,11.53
2019-03-02T22:41:55.443Z,13.30
2019-03-02T22:44:22.892Z,10.77
2019-03-02T22:46:50.482Z,14.30
2019-03-02T22:49:18.014Z,12.10
2019-03-02T22:51:45.585Z,15.37
2019-03-02T22:54:13.079Z,12.70
2019-03-02T22:56:40.514Z,13.33
2019-03-02T22:59:07.526Z,13.23
2019-03-02T23:01:50.917Z,12.27
2019-03-02T23:04:18.164Z,14.57
2019-03-02T23:06:46.220Z,11.23
2019-03-02T23:09:13.566Z,10.37
2019-03-02T23:11:41.049Z,12.73
2019-03-02T23:14:08.472Z,15.47
2019-03-02T23:16:36.043Z,18.33
2019-03-02T23:19:03.883Z,11.03
2019-03-02T23:21:31.513Z,11.53
2019-03-02T23:23:59.004Z,11.03
2019-03-02T23:26:26.920Z,12.07
2019-03-02T23:28:54.526Z,12.17
2019-03-02T23:31:22.109Z,15.47
2019-03-02T23:33:49.624Z,14.67
2019-03-02T23:36:17.106Z,11.63
2019-03-02T23:38:45.274Z,15.07
2019-03-02T23:41:12.938Z,12.80
2019-03-02T23:43:41.192Z,12.07
2019-03-02T23:46:09.005Z,11.80
2019-03-02T23:48:36.662Z,10.67
2019-03-02T23:51:04.342Z,11.93
2019-03-02T23:53:32.231Z,13.50
2019-03-02T23:56:01.213Z,12.13
2019-03-02T23:58:28.990Z,10.83
